Time;durP1;ratioP1;P1;durP2;ratioP2;P2;SDS_P1;SDS_P2;PMS_P1;PMS_P2;Temp;Humidity;BMP_temperature;BMP_pressure;BME280_temperature;BME280_humidity;BME280_pressure;Samples;Min_cycle;Max_cycle;Signal;HPM_P1;HPM_P2
2024/04/19 00:01:48;;;;;;;13.10;6.70;;;;;;;3.29;90.29;100147.55;52130;1256;1099178;-83
2024/04/19 00:04:35;;;;;;;14.20;7.60;;;;;;;3.28;90.13;100147.30;52057;1261;1099704;-83
2024/04/19 00:07:20;;;;;;;14.90;7.60;;;;;;;3.25;90.00;100149.54;52295;1264;1098625;-83
2024/04/19 00:10:07;;;;;;;14.60;7.40;;;;;;;3.23;90.15;100146.27;52338;1258;1098215;-84
2024/04/19 00:12:52;;;;;;;13.90;7.40;;;;;;;3.21;90.24;100146.98;52344;1257;1098895;-84
2024/04/19 00:15:42;;;;;;;13.90;8.00;;;;;;;3.19;89.98;100143.84;52162;1257;1098732;-83
2024/04/19 00:18:29;;;;;;;13.60;7.00;;;;;;;3.15;90.20;100145.04;52293;1272;1099550;-85
2024/04/19 00:21:15;;;;;;;17.30;9.00;;;;;;;3.11;89.95;100146.29;52150;1262;1099954;-83
2024/04/19 00:24:01;;;;;;;17.90;9.10;;;;;;;3.08;90.30;100144.48;51946;1261;1352626;-84
2024/04/19 00:26:50;;;;;;;17.40;8.80;;;;;;;3.06;90.48;100134.86;52201;1263;1098914;-84
2024/04/19 00:29:56;;;;;;;15.10;9.00;;;;;;;3.03;90.80;100134.25;52217;1257;1099202;-83
2024/04/19 00:32:42;;;;;;;19.50;9.50;;;;;;;3.02;90.84;100133.27;52224;1261;1098312;-84
2024/04/19 00:35:28;;;;;;;17.80;10.00;;;;;;;3.01;90.54;100139.19;52279;1260;1098800;-84
2024/04/19 00:38:14;;;;;;;18.80;10.10;;;;;;;3.00;90.55;100142.02;52237;1262;1098811;-83
2024/04/19 00:41:00;;;;;;;16.70;9.50;;;;;;;2.96;90.86;100137.63;52306;1256;1098858;-83
2024/04/19 00:43:45;;;;;;;18.90;10.00;;;;;;;2.93;90.84;100138.93;51857;1267;1098853;-83
2024/04/19 00:46:32;;;;;;;17.10;9.30;;;;;;;2.90;90.81;100135.50;52091;1264;1098622;-85
2024/04/19 00:49:18;;;;;;;15.80;10.00;;;;;;;2.89;91.22;100134.22;52121;1257;1099687;-84
2024/04/19 00:52:07;;;;;;;16.60;9.50;;;;;;;2.85;91.44;100131.27;52225;1263;1098695;-82
2024/04/19 00:54:53;;;;;;;16.00;9.80;;;;;;;2.84;91.75;100131.19;52159;1257;1098454;-83
2024/04/19 00:57:39;;;;;;;17.10;10.30;;;;;;;2.81;92.03;100127.73;52255;1260;1098605;-83
2024/04/19 01:00:26;;;;;;;15.70;9.90;;;;;;;2.76;92.26;100134.21;52208;1261;1099391;-83
2024/04/19 01:03:12;;;;;;;18.00;10.60;;;;;;;2.74;92.47;100127.23;52082;1258;1098545;-84
2024/04/19 01:05:58;;;;;;;20.80;12.60;;;;;;;2.72;92.69;100131.45;52070;1257;1099038;-83
2024/04/19 01:08:47;;;;;;;21.70;11.20;;;;;;;2.72;92.60;100128.66;52057;1264;1098167;-83
2024/04/19 01:11:48;;;;;;;19.20;11.90;;;;;;;2.72;92.69;100124.27;52181;1257;1099129;-83
2024/04/19 01:14:34;;;;;;;20.50;13.70;;;;;;;2.68;92.86;100120.20;52060;1258;1099353;-83
2024/04/19 01:17:20;;;;;;;20.30;15.00;;;;;;;2.65;93.01;100114.84;51993;1257;1099280;-83
2024/04/19 01:20:07;;;;;;;22.30;14.60;;;;;;;2.64;92.92;100113.27;52203;1270;1099637;-83
2024/04/19 01:22:56;;;;;;;21.50;13.00;;;;;;;2.60;93.13;100107.84;52103;1262;1099419;-83
2024/04/19 01:25:43;;;;;;;20.80;12.40;;;;;;;2.57;93.16;100105.99;51926;1264;1098650;-84
2024/04/19 01:28:29;;;;;;;17.60;12.20;;;;;;;2.56;93.16;100108.95;52284;1263;1099044;-83
2024/04/19 01:31:15;;;;;;;20.80;12.50;;;;;;;2.54;93.40;100108.62;52171;1261;1099469;-83
2024/04/19 01:34:01;;;;;;;20.70;12.10;;;;;;;2.51;93.40;100112.02;52119;1268;1098456;-85
2024/04/19 01:36:46;;;;;;;20.50;12.30;;;;;;;2.48;93.56;100110.08;52108;1259;1098927;-84
2024/04/19 01:39:33;;;;;;;25.70;12.60;;;;;;;2.46;93.71;100112.04;52182;1261;1100627;-85
2024/04/19 01:42:18;;;;;;;19.40;13.40;;;;;;;2.45;93.74;100112.13;51991;1261;1099087;-84
2024/04/19 01:45:21;;;;;;;20.00;12.30;;;;;;;2.44;93.80;100109.04;52092;1257;1099691;-85
2024/04/19 01:48:07;;;;;;;23.90;13.10;;;;;;;2.40;93.76;100108.54;52022;1267;1098286;-84
2024/04/19 01:50:53;;;;;;;22.60;12.40;;;;;;;2.39;93.95;100103.00;52216;1257;1098529;-84
2024/04/19 01:53:39;;;;;;;23.50;13.70;;;;;;;2.36;94.15;100108.88;52739;1257;1098338;-84
2024/04/19 01:56:25;;;;;;;21.70;13.70;;;;;;;2.36;94.04;100108.52;52766;1262;1099260;-85
2024/04/19 01:59:11;;;;;;;28.20;13.60;;;;;;;2.37;94.11;100106.91;53055;1260;1098067;-85
2024/04/19 02:01:57;;;;;;;26.20;14.70;;;;;;;2.37;93.98;100108.13;52644;1260;1098453;-83
2024/04/19 02:04:47;;;;;;;26.00;13.50;;;;;;;2.34;94.36;100102.60;52700;1260;1099741;-84
2024/04/19 02:07:33;;;;;;;24.10;14.30;;;;;;;2.30;94.30;100101.44;52464;1260;1098672;-83
2024/04/19 02:10:20;;;;;;;30.50;15.50;;;;;;;2.30;94.38;100098.39;52336;1260;1100534;-84
2024/04/19 02:13:06;;;;;;;28.60;16.20;;;;;;;2.31;94.38;100101.98;52152;1260;1098586;-83
2024/04/19 02:15:52;;;;;;;28.10;16.70;;;;;;;2.30;94.49;100095.02;52196;1263;1098160;-84
2024/04/19 02:18:38;;;;;;;31.40;17.00;;;;;;;2.32;94.32;100093.11;52134;1258;1101888;-83
2024/04/19 02:21:27;;;;;;;35.90;21.30;;;;;;;2.32;94.40;100094.43;51988;1267;1099390;-84
2024/04/19 02:24:13;;;;;;;37.30;23.40;;;;;;;2.31;94.10;100094.27;52210;1257;1099877;-83
2024/04/19 02:27:01;;;;;;;33.20;19.80;;;;;;;2.30;94.13;100089.42;52231;1258;1098771;-83
2024/04/19 02:32:52;;;;;;;26.00;14.90;;;;;;;2.26;93.70;100087.31;52231;1257;1099195;-83
2024/04/19 02:35:38;;;;;;;22.50;14.50;;;;;;;2.24;93.70;100082.94;52246;1257;1098478;-83
2024/04/19 02:38:24;;;;;;;25.60;13.90;;;;;;;2.24;93.56;100080.14;52286;1263;1098756;-84
2024/04/19 02:41:10;;;;;;;24.60;15.30;;;;;;;2.24;93.53;100074.31;52223;1264;1099072;-84
2024/04/19 02:43:56;;;;;;;25.30;14.70;;;;;;;2.25;93.84;100068.73;52168;1260;1099412;-84
2024/04/19 02:46:42;;;;;;;23.00;13.70;;;;;;;2.26;94.08;100073.74;51953;1257;1098087;-84
2024/04/19 02:49:28;;;;;;;23.60;14.50;;;;;;;2.27;94.39;100063.80;52033;1261;1098407;-84
2024/04/19 02:52:14;;;;;;;24.40;14.60;;;;;;;2.27;94.78;100063.11;52011;1257;1098915;-85
2024/04/19 02:55:00;;;;;;;23.30;14.10;;;;;;;2.26;94.91;100071.42;52004;1257;1098391;-84
2024/04/19 02:57:47;;;;;;;26.90;15.30;;;;;;;2.27;95.29;100068.90;52006;1263;1098774;-83
2024/04/19 03:00:52;;;;;;;26.30;15.60;;;;;;;2.29;95.46;100056.06;52069;1269;1098923;-84
2024/04/19 03:03:39;;;;;;;22.50;14.10;;;;;;;2.30;95.89;100051.73;52009;1263;1098487;-82
2024/04/19 03:06:24;;;;;;;24.40;15.10;;;;;;;2.30;95.73;100043.25;52036;1264;1099722;-84
2024/04/19 03:09:10;;;;;;;27.00;15.60;;;;;;;2.30;96.11;100046.77;51943;1264;1098775;-84
2024/04/19 03:12:08;;;;;;;26.90;16.20;;;;;;;2.29;96.30;100051.75;52046;1257;1100457;-85
2024/04/19 03:14:54;;;;;;;28.60;16.00;;;;;;;2.28;96.62;100050.82;52228;1257;1098701;-84
2024/04/19 03:17:43;;;;;;;28.70;17.00;;;;;;;2.28;96.68;100047.17;52194;1257;1099785;-84
2024/04/19 03:20:29;;;;;;;26.40;16.90;;;;;;;2.30;97.09;100044.98;51992;1258;1098783;-84
2024/04/19 03:23:15;;;;;;;30.50;17.10;;;;;;;2.30;97.17;100045.38;52090;1261;1099591;-84
2024/04/19 03:26:02;;;;;;;30.20;17.50;;;;;;;2.26;97.26;100043.64;52193;1258;1098249;-85
2024/04/19 03:28:50;;;;;;;31.20;18.40;;;;;;;2.25;97.62;100044.27;52337;1257;1098796;-83
2024/04/19 03:31:36;;;;;;;35.20;20.00;;;;;;;2.25;97.76;100042.32;52034;1263;1098834;-85
2024/04/19 03:34:24;;;;;;;37.30;21.90;;;;;;;2.25;98.32;100041.59;52011;1257;1098592;-85
2024/04/19 03:37:10;;;;;;;45.80;23.20;;;;;;;2.28;98.35;100034.64;52027;1266;1098506;-85
2024/04/19 03:39:56;;;;;;;39.40;22.50;;;;;;;2.29;98.49;100032.09;51952;1257;1100441;-85
2024/04/19 03:42:47;;;;;;;41.40;22.90;;;;;;;2.29;98.51;100031.89;52073;1259;1098903;-84
2024/04/19 03:45:42;;;;;;;44.30;23.70;;;;;;;2.26;98.60;100027.61;52023;1257;1099112;-84
2024/04/19 03:48:28;;;;;;;38.00;20.80;;;;;;;2.25;99.14;100022.80;52373;1257;1099381;-85
2024/04/19 03:51:13;;;;;;;35.80;21.40;;;;;;;2.27;99.28;100024.68;52344;1261;1099546;-85
2024/04/19 03:53:59;;;;;;;34.70;21.20;;;;;;;2.31;99.43;100032.40;52185;1257;1098733;-84
2024/04/19 03:56:45;;;;;;;34.40;19.40;;;;;;;2.34;99.55;100032.13;52070;1264;1098266;-84
2024/04/19 03:59:31;;;;;;;29.80;18.50;;;;;;;2.37;99.71;100030.57;52043;1260;1098811;-86
2024/04/19 04:02:32;;;;;;;;;;;;;;;2.40;99.93;100025.58;52193;1260;1099444;-85
2024/04/19 04:05:18;;;;;;;30.10;17.50;;;;;;;2.40;99.90;100022.00;52165;1264;1098223;-84
2024/04/19 04:08:07;;;;;;;30.00;17.20;;;;;;;2.43;99.99;100020.68;52290;1257;1098965;-85
2024/04/19 04:10:54;;;;;;;27.80;17.30;;;;;;;2.45;100.00;100029.65;52080;1257;1099064;-84
2024/04/19 04:13:42;;;;;;;29.30;18.50;;;;;;;2.47;100.00;100030.21;52188;1260;1098759;-84
2024/04/19 04:16:28;;;;;;;31.60;18.10;;;;;;;2.50;100.00;100030.19;52299;1257;1098870;-85
2024/04/19 04:19:16;;;;;;;25.80;17.20;;;;;;;2.54;100.00;100031.23;52132;1260;1099610;-83
2024/04/19 04:22:02;;;;;;;30.80;17.10;;;;;;;2.54;100.00;100030.14;52009;1257;1098753;-84
2024/04/19 04:24:48;;;;;;;29.30;18.40;;;;;;;2.56;100.00;100026.46;52086;1257;1098366;-84
2024/04/19 04:27:33;;;;;;;44.60;24.40;;;;;;;2.60;100.00;100020.21;52213;1258;1098327;-84
2024/04/19 04:30:19;;;;;;;100.50;48.00;;;;;;;2.66;100.00;100014.70;52200;1264;1099655;-84
2024/04/19 04:33:06;;;;;;;141.40;59.60;;;;;;;2.73;100.00;100008.91;52282;1257;1099151;-85
2024/04/19 04:35:52;;;;;;;138.90;57.70;;;;;;;2.79;100.00;100009.02;52249;1271;1099238;-85
2024/04/19 04:38:58;;;;;;;65.00;35.00;;;;;;;2.82;100.00;100003.94;52374;1257;1099272;-85
2024/04/19 04:41:46;;;;;;;48.20;26.40;;;;;;;2.88;100.00;100002.31;52248;1265;1099060;-84
2024/04/19 04:44:35;;;;;;;42.60;27.00;;;;;;;2.92;100.00;100006.09;52297;1267;1098831;-84
2024/04/19 04:47:36;;;;;;;49.80;37.40;;;;;;;2.97;100.00;100002.73;52338;1264;1098652;-82
2024/04/19 04:50:23;;;;;;;48.80;34.90;;;;;;;3.02;100.00;99997.25;52263;1256;1099878;-86
2024/04/19 04:53:11;;;;;;;45.60;35.00;;;;;;;3.07;100.00;99995.04;52231;1263;1100099;-85
2024/04/19 04:55:57;;;;;;;46.90;35.10;;;;;;;3.12;100.00;99992.36;52268;1258;1099527;-85
2024/04/19 04:58:44;;;;;;;45.90;37.30;;;;;;;3.16;100.00;99983.38;52135;1260;1099312;-85
2024/04/19 05:01:30;;;;;;;44.10;35.40;;;;;;;3.19;100.00;99978.85;52129;1257;1099445;-84
2024/04/19 05:04:16;;;;;;;33.20;23.70;;;;;;;3.22;100.00;99974.77;52014;1263;1098331;-84
2024/04/19 05:07:02;;;;;;;26.60;17.00;;;;;;;3.26;100.00;99972.78;52125;1261;1099044;-83
2024/04/19 05:09:51;;;;;;;26.40;15.50;;;;;;;3.32;100.00;99969.21;52100;1255;1099651;-85
2024/04/19 05:12:37;;;;;;;22.20;14.50;;;;;;;3.39;100.00;99967.04;52106;1263;1099218;-84
2024/04/19 05:15:23;;;;;;;24.00;14.90;;;;;;;3.47;100.00;99965.34;52084;1255;1098919;-83
2024/04/19 05:18:09;;;;;;;23.60;14.10;;;;;;;3.55;100.00;99962.10;52230;1264;1098430;-84
2024/04/19 05:20:55;;;;;;;23.40;14.70;;;;;;;3.62;100.00;99963.06;52012;1256;1099071;-85
2024/04/19 05:23:41;;;;;;;22.00;14.00;;;;;;;3.71;100.00;99964.36;52135;1260;1099740;-84
2024/04/19 05:26:27;;;;;;;21.50;13.00;;;;;;;3.80;100.00;99962.95;52070;1260;1098830;-85
2024/04/19 05:29:13;;;;;;;25.80;14.20;;;;;;;3.87;100.00;99958.88;51960;1264;1098565;-84
2024/04/19 05:31:59;;;;;;;21.60;13.90;;;;;;;3.92;100.00;99959.36;51986;1256;1099946;-84
2024/04/19 05:34:44;;;;;;;24.40;13.00;;;;;;;3.98;100.00;99953.85;52249;1256;1098725;-84
2024/04/19 05:37:30;;;;;;;21.40;13.20;;;;;;;4.00;100.00;99954.98;52311;1260;1099602;-85
2024/04/19 05:40:19;;;;;;;22.60;12.50;;;;;;;4.07;100.00;99951.83;52271;1264;1099782;-84
2024/04/19 05:43:05;;;;;;;20.10;12.40;;;;;;;4.13;100.00;99950.48;52337;1263;1098808;-86
2024/04/19 05:45:52;;;;;;;16.20;11.20;;;;;;;4.17;100.00;99947.94;52224;1258;1099123;-85
2024/04/19 05:48:38;;;;;;;14.30;10.30;;;;;;;4.21;100.00;99944.88;52112;1255;1098244;-84
2024/04/19 05:51:24;;;;;;;16.80;11.40;;;;;;;4.26;100.00;99943.95;51919;1255;1101168;-85
2024/04/19 05:54:10;;;;;;;15.60;10.40;;;;;;;4.33;100.00;99935.80;52124;1258;1099245;-83
2024/04/19 05:56:57;;;;;;;17.10;10.90;;;;;;;4.39;100.00;99927.02;51994;1256;1099162;-84
2024/04/19 05:59:43;;;;;;;14.30;9.40;;;;;;;4.44;100.00;99928.86;52104;1263;1098803;-84
2024/04/19 06:02:31;;;;;;;17.60;10.40;;;;;;;4.49;100.00;99927.10;52022;1260;1099492;-85
2024/04/19 06:05:17;;;;;;;16.80;10.40;;;;;;;4.55;100.00;99927.17;52087;1257;1098287;-84
2024/04/19 06:08:03;;;;;;;15.90;9.50;;;;;;;4.58;100.00;99923.13;52300;1263;1098196;-84
2024/04/19 06:10:49;;;;;;;16.60;10.60;;;;;;;4.64;100.00;99922.17;52228;1257;1098420;-84
2024/04/19 06:13:36;;;;;;;14.50;9.40;;;;;;;4.71;100.00;99914.27;52257;1257;1098782;-79
2024/04/19 06:16:23;;;;;;;13.80;9.60;;;;;;;4.78;100.00;99915.17;52407;1257;1099371;-82
2024/04/19 06:19:09;;;;;;;16.10;10.10;;;;;;;4.86;100.00;99909.30;52124;1264;1099447;-82
2024/04/19 06:21:54;;;;;;;12.00;8.20;;;;;;;4.95;100.00;99907.80;52106;1260;1098143;-79
2024/04/19 06:24:40;;;;;;;13.80;9.20;;;;;;;5.04;100.00;99907.66;52094;1257;1098592;-83
2024/04/19 06:27:26;;;;;;;11.70;8.50;;;;;;;5.12;100.00;99911.50;52218;1256;1100730;-83
2024/04/19 06:30:12;;;;;;;12.40;7.90;;;;;;;5.17;100.00;99910.42;52177;1257;1099336;-82
2024/04/19 06:32:58;;;;;;;11.60;8.20;;;;;;;5.23;100.00;99909.75;52045;1260;1098567;-82
2024/04/19 06:35:43;;;;;;;11.60;7.60;;;;;;;5.30;100.00;99910.95;52547;1257;1099726;-81
2024/04/19 06:38:29;;;;;;;12.00;7.10;;;;;;;5.32;100.00;99906.40;52385;1260;1099708;-82
2024/04/19 06:41:15;;;;;;;10.60;7.10;;;;;;;5.31;100.00;99910.25;52334;1257;1098686;-82
2024/04/19 06:44:01;;;;;;;12.90;7.50;;;;;;;5.35;100.00;99910.02;52284;1256;1098507;-81
2024/04/19 06:46:46;;;;;;;13.30;7.60;;;;;;;5.39;100.00;99912.06;52008;1260;1099197;-80
2024/04/19 06:49:32;;;;;;;11.80;8.10;;;;;;;5.39;100.00;99904.36;52072;1256;1099441;-81
2024/04/19 06:52:17;;;;;;;13.80;7.50;;;;;;;5.40;100.00;99904.85;52385;1260;1098224;-82
2024/04/19 06:55:03;;;;;;;12.20;7.50;;;;;;;5.43;100.00;99902.20;52258;1257;1098209;-81
2024/04/19 06:57:49;;;;;;;11.10;7.40;;;;;;;5.46;100.00;99893.84;52269;1264;1098418;-82
2024/04/19 07:00:39;;;;;;;15.80;9.00;;;;;;;5.51;100.00;99886.92;52381;1257;1098585;-87
2024/04/19 07:03:24;;;;;;;16.50;10.40;;;;;;;5.57;100.00;99890.15;52321;1260;1098570;-79
2024/04/19 07:06:12;;;;;;;14.10;9.60;;;;;;;5.64;100.00;99881.71;52270;1260;1098717;-81
2024/04/19 07:08:58;;;;;;;22.20;12.00;;;;;;;5.74;100.00;99879.96;52282;1256;1098587;-81
2024/04/19 07:11:47;;;;;;;17.50;11.30;;;;;;;5.82;100.00;99878.14;52364;1257;1099447;-80
2024/04/19 07:14:33;;;;;;;17.40;11.00;;;;;;;5.91;100.00;99871.40;52141;1260;1098577;-83
2024/04/19 07:17:19;;;;;;;25.80;13.50;;;;;;;5.99;100.00;99871.55;52150;1263;1099446;-83
2024/04/19 07:20:06;;;;;;;34.50;18.80;;;;;;;6.02;100.00;99870.09;52228;1259;1098799;-85
2024/04/19 07:22:54;;;;;;;25.20;15.00;;;;;;;6.08;100.00;99871.86;52289;1257;1099265;-82
2024/04/19 07:25:39;;;;;;;28.00;15.80;;;;;;;6.23;100.00;99871.11;52143;1258;1099568;-81
2024/04/19 07:28:25;;;;;;;19.80;14.30;;;;;;;6.41;100.00;99866.48;52076;1256;1099457;-81
2024/04/19 07:31:11;;;;;;;20.90;14.80;;;;;;;6.57;99.92;99858.50;52129;1261;1098778;-80
2024/04/19 07:33:56;;;;;;;18.60;12.80;;;;;;;6.70;99.86;99866.94;52130;1260;1099212;-78
2024/04/19 07:36:42;;;;;;;19.80;13.60;;;;;;;6.85;99.91;99855.08;52125;1257;1098753;-81
2024/04/19 07:39:29;;;;;;;16.50;13.00;;;;;;;6.96;98.84;99855.48;52544;1262;1099706;-81
2024/04/19 07:42:15;;;;;;;15.90;12.50;;;;;;;7.04;98.70;99850.86;52379;1260;1098880;-80
2024/04/19 07:45:01;;;;;;;16.20;12.70;;;;;;;7.05;97.21;99846.11;52092;1258;1098983;-81
2024/04/19 07:47:47;;;;;;;17.00;12.00;;;;;;;7.03;96.75;99849.54;52454;1264;1099086;-82
2024/04/19 07:50:33;;;;;;;16.60;10.80;;;;;;;7.04;96.69;99850.63;52376;1258;1098931;-81
2024/04/19 07:53:20;;;;;;;16.70;11.70;;;;;;;7.07;96.50;99852.30;52173;1261;1099577;-82
2024/04/19 07:56:07;;;;;;;15.30;10.80;;;;;;;7.08;96.38;99849.61;52066;1264;1099664;-82
2024/04/19 07:58:53;;;;;;;17.70;10.60;;;;;;;7.06;96.14;99848.98;52334;1256;1098375;-82
2024/04/19 08:01:39;;;;;;;18.00;10.40;;;;;;;7.10;95.96;99846.55;52135;1263;1098139;-82
2024/04/19 08:04:25;;;;;;;12.50;9.90;;;;;;;7.19;96.25;99840.02;52324;1256;1098593;-82
2024/04/19 08:07:10;;;;;;;15.30;10.70;;;;;;;7.25;95.46;99842.30;52370;1255;1098840;-83
2024/04/19 08:09:56;;;;;;;18.70;11.20;;;;;;;7.25;95.20;99834.81;52565;1260;1099185;-82
2024/04/19 08:12:44;;;;;;;15.20;10.30;;;;;;;7.29;95.86;99829.50;52306;1262;1099008;-83
2024/04/19 08:15:29;;;;;;;14.20;9.60;;;;;;;7.39;96.18;99824.48;52239;1256;1098370;-83
2024/04/19 08:18:15;;;;;;;13.80;9.40;;;;;;;7.51;96.45;99814.17;52420;1256;1099046;-82
2024/04/19 08:21:01;;;;;;;14.00;9.90;;;;;;;7.60;95.85;99812.83;52353;1257;1099022;-82
2024/04/19 08:23:47;;;;;;;11.30;8.90;;;;;;;7.67;95.30;99813.52;52293;1256;1098948;-82
2024/04/19 08:26:32;;;;;;;12.20;8.20;;;;;;;7.75;94.97;99812.25;52300;1255;1099196;-83
2024/04/19 08:29:19;;;;;;;13.50;10.40;;;;;;;7.79;94.22;99812.49;52207;1255;1099305;-82
2024/04/19 08:32:09;;;;;;;11.00;8.80;;;;;;;7.82;94.22;99808.27;52271;1255;1098266;-81
2024/04/19 08:34:56;;;;;;;10.40;8.40;;;;;;;7.84;94.48;99811.15;52721;1264;1098205;-82
2024/04/19 08:37:42;;;;;;;11.50;8.00;;;;;;;7.86;94.41;99811.34;52299;1256;1098902;-82
2024/04/19 08:40:29;;;;;;;12.30;9.10;;;;;;;7.84;93.69;99807.29;52439;1255;1098352;-82
2024/04/19 08:43:17;;;;;;;12.30;9.50;;;;;;;7.85;93.97;99804.83;52234;1257;1098717;-83
2024/04/19 08:46:04;;;;;;;11.00;9.10;;;;;;;7.96;94.44;99805.10;52281;1257;1098336;-83
2024/04/19 08:48:51;;;;;;;13.90;8.30;;;;;;;8.10;94.62;99799.75;52271;1256;1098870;-83
2024/04/19 08:51:38;;;;;;;10.70;7.80;;;;;;;8.19;93.56;99796.60;52281;1256;1098889;-83
2024/04/19 08:54:26;;;;;;;10.60;6.90;;;;;;;8.19;92.16;99800.73;52456;1256;1099570;-83
2024/04/19 08:57:12;;;;;;;11.00;6.80;;;;;;;8.24;91.57;99794.36;52348;1260;1099568;-83
2024/04/19 09:00:02;;;;;;;11.00;7.40;;;;;;;8.33;92.02;99785.35;52381;1260;1099663;-83
2024/04/19 09:02:48;;;;;;;8.10;6.10;;;;;;;8.43;91.77;99781.79;52244;1256;1099885;-81
2024/04/19 09:05:33;;;;;;;8.00;5.00;;;;;;;8.49;90.81;99782.78;52175;1258;1099074;-84
2024/04/19 09:08:21;;;;;;;7.00;5.00;;;;;;;8.54;89.93;99781.49;52160;1264;1098601;-86
2024/04/19 09:11:13;;;;;;;6.70;5.20;;;;;;;8.64;89.62;99778.00;52054;1259;1099099;-82
2024/04/19 09:13:59;;;;;;;8.40;4.90;;;;;;;8.77;89.68;99780.33;52227;1257;1099487;-81
2024/04/19 09:16:49;;;;;;;9.00;4.70;;;;;;;8.89;88.95;99772.59;51931;1255;1100331;-87
2024/04/19 09:19:35;;;;;;;11.20;5.50;;;;;;;8.99;89.14;99765.55;52552;1256;1098278;-87
2024/04/19 09:22:20;;;;;;;8.20;4.00;;;;;;;9.13;87.41;99768.14;52432;1256;1098991;-80
2024/04/19 09:25:06;;;;;;;9.50;4.40;;;;;;;9.21;86.31;99762.30;52507;1255;1099896;-80
2024/04/19 09:27:55;;;;;;;9.70;5.00;;;;;;;9.23;85.89;99757.91;52607;1256;1099377;-81
2024/04/19 09:30:41;;;;;;;8.00;5.00;;;;;;;9.24;85.74;99761.25;52568;1255;1098675;-81
2024/04/19 09:33:27;;;;;;;7.80;5.00;;;;;;;9.24;85.17;99757.65;52651;1257;1098489;-81
2024/04/19 09:36:19;;;;;;;12.30;9.10;;;;;;;9.22;84.76;99757.79;52625;1258;1098756;-81
2024/04/19 09:39:05;;;;;;;10.00;5.20;;;;;;;9.14;83.32;99757.69;52642;1257;1098844;-81
2024/04/19 09:41:51;;;;;;;6.40;3.80;;;;;;;9.15;84.11;99748.88;52646;1261;1099503;-81
2024/04/19 09:44:40;;;;;;;10.60;4.00;;;;;;;9.29;84.55;99745.23;52610;1255;1098589;-81
2024/04/19 09:47:31;;;;;;;8.00;3.80;;;;;;;9.39;83.04;99742.09;52622;1255;1099085;-81
2024/04/19 09:50:19;;;;;;;7.90;4.10;;;;;;;9.47;81.12;99732.80;52392;1255;1098463;-84
2024/04/19 09:53:10;;;;;;;6.10;3.50;;;;;;;9.50;81.72;99724.46;52208;1256;1099586;-81
2024/04/19 09:56:29;;;;;;;4.70;3.20;;;;;;;9.63;82.03;99731.61;52177;1261;1099377;-82
2024/04/19 09:59:15;;;;;;;5.10;2.90;;;;;;;9.65;78.64;99736.77;52020;1255;1098203;-83
2024/04/19 10:02:02;;;;;;;5.80;3.10;;;;;;;9.59;77.57;99728.65;52267;1261;1099222;-83
2024/04/19 10:04:50;;;;;;;6.90;2.70;;;;;;;9.67;77.29;99731.00;52214;1256;1110221;-83
2024/04/19 10:07:37;;;;;;;11.50;3.40;;;;;;;9.66;75.49;99726.10;52465;1256;1098782;-83
2024/04/19 10:10:23;;;;;;;7.60;3.00;;;;;;;9.61;75.25;99720.62;52122;1257;1098156;-83
2024/04/19 10:13:11;;;;;;;5.50;2.60;;;;;;;9.61;75.37;99720.30;52339;1255;1099475;-81
2024/04/19 10:15:58;;;;;;;6.50;2.30;;;;;;;9.71;74.93;99716.75;52332;1257;1098703;-85
2024/04/19 10:18:44;;;;;;;6.30;2.70;;;;;;;9.74;74.81;99709.43;52050;1256;1098863;-84
2024/04/19 10:21:33;;;;;;;7.30;2.70;;;;;;;9.81;75.43;99718.86;52032;1260;1099012;-82
2024/04/19 10:24:22;;;;;;;6.20;2.60;;;;;;;9.92;73.41;99715.42;52302;1255;1098267;-82
2024/04/19 10:27:10;;;;;;;7.40;2.70;;;;;;;10.06;74.09;99710.06;52232;1255;1098648;-83
2024/04/19 10:30:03;;;;;;;6.40;2.20;;;;;;;10.22;73.78;99714.48;52094;1259;1099239;-83
2024/04/19 10:32:58;;;;;;;7.60;2.40;;;;;;;10.29;72.67;99712.96;52162;1255;1098332;-84
2024/04/19 10:35:46;;;;;;;5.20;2.10;;;;;;;10.31;72.57;99705.89;52431;1255;1099035;-83
2024/04/19 10:38:34;;;;;;;7.00;2.70;;;;;;;10.31;71.57;99704.69;52071;1255;1098776;-85
2024/04/19 10:41:19;;;;;;;4.90;2.70;;;;;;;10.21;70.92;99704.83;52289;1257;1097985;-84
2024/04/19 10:44:13;;;;;;;6.50;3.40;;;;;;;10.14;71.53;99702.05;52288;1256;1099116;-80
2024/04/19 10:46:59;;;;;;;8.70;3.40;;;;;;;10.06;71.55;99698.69;52561;1256;1099232;-80
2024/04/19 10:49:44;;;;;;;6.90;3.30;;;;;;;9.93;70.55;99700.27;52665;1261;1098221;-81
2024/04/19 10:52:36;;;;;;;4.70;2.30;;;;;;;9.89;71.54;99689.08;52667;1257;1098145;-80
2024/04/19 10:55:23;;;;;;;5.80;2.30;;;;;;;10.03;71.77;99686.87;52582;1257;1099020;-81
2024/04/19 10:58:09;;;;;;;9.00;2.60;;;;;;;10.21;72.33;99682.52;52573;1256;1098687;-81
2024/04/19 11:00:55;;;;;;;3.00;2.40;;;;;;;10.26;70.88;99673.75;52705;1257;1099082;-81
2024/04/19 11:03:40;;;;;;;8.80;2.70;;;;;;;10.32;70.19;99664.23;52638;1256;1098961;-81
2024/04/19 11:06:29;;;;;;;6.20;2.30;;;;;;;10.41;69.96;99662.76;52528;1261;1099415;-81
2024/04/19 11:09:16;;;;;;;6.30;2.50;;;;;;;10.55;70.48;99654.89;52597;1263;1098646;-82
2024/04/19 11:12:03;;;;;;;5.50;2.50;;;;;;;10.76;71.43;99652.39;52690;1258;1098914;-81
2024/04/19 11:14:49;;;;;;;5.90;2.40;;;;;;;10.91;70.38;99651.42;52472;1258;1098654;-80
2024/04/19 11:17:34;;;;;;;4.70;2.10;;;;;;;10.98;69.81;99648.30;52180;1257;1099776;-80
2024/04/19 11:20:20;;;;;;;4.30;2.50;;;;;;;10.93;68.70;99642.55;52276;1262;1099301;-80
2024/04/19 11:23:07;;;;;;;7.70;2.70;;;;;;;10.85;68.08;99641.13;52349;1261;1100153;-80
2024/04/19 11:25:56;;;;;;;5.50;2.20;;;;;;;10.78;67.64;99637.08;52254;1256;1099128;-79
2024/04/19 11:28:46;;;;;;;4.00;2.10;;;;;;;10.80;67.71;99630.56;52222;1263;1101582;-80
2024/04/19 11:31:32;;;;;;;3.40;2.00;;;;;;;10.87;67.16;99623.20;52401;1256;1098185;-80
2024/04/19 11:34:18;;;;;;;3.70;2.10;;;;;;;10.95;67.55;99626.91;52256;1258;1098297;-80
2024/04/19 11:37:03;;;;;;;4.60;2.40;;;;;;;11.07;67.99;99626.66;52387;1260;1098541;-81
2024/04/19 11:39:49;;;;;;;6.30;2.80;;;;;;;11.14;67.12;99619.02;52518;1260;1099931;-80
2024/04/19 11:42:35;;;;;;;5.30;3.20;;;;;;;11.18;66.24;99621.67;52579;1261;1099560;-79
2024/04/19 11:45:21;;;;;;;4.80;2.40;;;;;;;11.18;65.91;99617.66;52175;1259;1098237;-79
2024/04/19 11:48:07;;;;;;;5.80;2.60;;;;;;;11.23;66.13;99612.30;52162;1258;1099245;-79
2024/04/19 11:50:57;;;;;;;2.80;2.10;;;;;;;11.28;65.90;99615.45;52425;1256;1098347;-79
2024/04/19 11:53:43;;;;;;;7.70;2.50;;;;;;;11.26;65.45;99615.13;51970;1262;1098762;-80
2024/04/19 11:56:28;;;;;;;6.00;2.70;;;;;;;11.15;64.66;99618.17;52321;1257;1098863;-79
2024/04/19 11:59:20;;;;;;;7.50;2.80;;;;;;;11.07;65.54;99619.52;52472;1258;1098584;-80
2024/04/19 12:02:05;;;;;;;5.00;2.30;;;;;;;11.01;65.01;99617.30;52478;1257;1098905;-85
2024/04/19 12:04:51;;;;;;;5.70;2.50;;;;;;;10.97;65.13;99622.91;51996;1258;1099324;-83
2024/04/19 12:07:38;;;;;;;4.20;2.40;;;;;;;10.90;64.98;99623.23;52186;1257;1098631;-83
2024/04/19 12:10:24;;;;;;;5.40;2.60;;;;;;;10.83;66.24;99631.05;52358;1255;1098192;-87
2024/04/19 12:13:09;;;;;;;5.10;2.30;;;;;;;10.69;66.61;99637.64;52144;1257;1098962;-84
2024/04/19 12:15:55;;;;;;;5.50;2.30;;;;;;;10.51;66.25;99637.80;52051;1258;1098804;-85
2024/04/19 12:18:41;;;;;;;2.90;1.70;;;;;;;10.24;66.55;99637.41;52213;1258;1098640;-87
2024/04/19 12:21:27;;;;;;;1.60;1.40;;;;;;;10.00;67.80;99641.59;52229;1258;1098815;-85
2024/04/19 12:24:13;;;;;;;5.60;1.40;;;;;;;9.87;68.43;99635.39;52321;1258;1098644;-83
2024/04/19 12:26:59;;;;;;;2.20;1.50;;;;;;;9.87;69.92;99628.42;52287;1264;1098974;-82
2024/04/19 12:29:46;;;;;;;3.40;1.50;;;;;;;9.94;70.53;99626.16;51999;1258;1098265;-83
2024/04/19 12:32:32;;;;;;;4.40;1.90;;;;;;;10.09;71.71;99620.98;52075;1264;1099411;-83
2024/04/19 12:35:18;;;;;;;2.40;1.60;;;;;;;10.27;72.01;99618.18;52254;1261;1099258;-86
2024/04/19 12:38:05;;;;;;;2.90;1.90;;;;;;;10.39;71.59;99613.42;52065;1258;1098911;-86
2024/04/19 12:40:51;;;;;;;3.80;3.00;;;;;;;10.51;72.18;99611.94;52195;1258;1099797;-86
2024/04/19 12:43:37;;;;;;;2.60;2.10;;;;;;;10.58;72.23;99612.21;52104;1259;1099232;-84